createdAt,value
2019-04-04T00:00:16.246Z,81.48
2019-04-04T00:01:20.532Z,81.52
2019-04-04T00:01:56.907Z,81.42
2019-04-04T00:02:32.435Z,81.42
2019-04-04T00:03:08.578Z,81.56
2019-04-04T00:03:44.104Z,81.29
2019-04-04T00:04:21.792Z,80.90
2019-04-04T00:04:57.832Z,80.69
2019-04-04T00:05:33.715Z,80.91
2019-04-04T00:06:09.466Z,80.88
2019-04-04T00:06:44.921Z,80.95
2019-04-04T00:07:20.347Z,81.10
2019-04-04T00:07:55.770Z,81.23
2019-04-04T00:08:32.087Z,81.59
2019-04-04T00:09:10.404Z,81.63
2019-04-04T00:09:45.917Z,81.63
2019-04-04T00:10:21.565Z,81.23
2019-04-04T00:10:56.988Z,81.11
2019-04-04T00:11:32.647Z,81.10
2019-04-04T00:12:08.667Z,81.36
2019-04-04T00:12:44.649Z,81.54
2019-04-04T00:13:20.293Z,81.55
2019-04-04T00:13:55.771Z,81.70
2019-04-04T00:14:31.186Z,81.91
2019-04-04T00:15:06.746Z,81.96
2019-04-04T00:15:45.358Z,81.70
2019-04-04T00:16:20.230Z,81.70
2019-04-04T00:16:55.726Z,81.70
2019-04-04T00:17:31.198Z,81.95
2019-04-04T00:18:06.930Z,82.01
2019-04-04T00:18:42.483Z,81.98
2019-04-04T00:19:17.929Z,81.63
2019-04-04T00:19:53.356Z,81.28
2019-04-04T00:20:31.511Z,81.22
2019-04-04T00:21:05.901Z,81.26
2019-04-04T00:21:41.377Z,81.34
2019-04-04T00:22:17.204Z,81.52
2019-04-04T00:22:52.646Z,81.35
2019-04-04T00:23:28.512Z,81.03
2019-04-04T00:24:04.224Z,81.00
2019-04-04T00:24:39.952Z,81.25
2019-04-04T00:25:15.711Z,81.50
2019-04-04T00:25:51.130Z,81.27
2019-04-04T00:26:26.565Z,81.11
2019-04-04T00:27:01.979Z,80.81
2019-04-04T00:27:37.505Z,80.81
2019-04-04T00:28:15.024Z,80.81
2019-04-04T00:28:50.767Z,80.58
2019-04-04T00:29:26.221Z,80.58
2019-04-04T00:30:01.798Z,80.67
2019-04-04T00:30:37.495Z,80.81
2019-04-04T00:31:13.102Z,81.17
2019-04-04T00:31:49.866Z,80.74
2019-04-04T00:32:26.033Z,80.12
2019-04-04T00:33:01.560Z,80.12
2019-04-04T00:33:36.945Z,79.89
2019-04-04T00:34:13.855Z,80.49
2019-04-04T00:34:49.713Z,80.49
2019-04-04T00:35:25.230Z,80.38
2019-04-04T00:36:02.635Z,80.09
2019-04-04T00:36:38.165Z,80.09
2019-04-04T00:37:13.909Z,79.80
2019-04-04T00:37:49.344Z,80.05
2019-04-04T00:38:24.778Z,80.50
2019-04-04T00:39:00.200Z,80.55
2019-04-04T00:39:36.113Z,80.33
2019-04-04T00:40:11.893Z,80.33
2019-04-04T00:40:47.582Z,79.51
2019-04-04T00:41:23.156Z,79.38
2019-04-04T00:41:58.585Z,79.84
2019-04-04T00:42:34.022Z,80.07
2019-04-04T00:43:09.446Z,80.16
2019-04-04T00:43:45.253Z,80.56
2019-04-04T00:44:21.027Z,80.77
2019-04-04T00:44:57.779Z,80.20
2019-04-04T00:45:33.676Z,79.63
2019-04-04T00:46:09.167Z,79.63
2019-04-04T00:46:44.612Z,80.10
2019-04-04T00:47:20.011Z,80.10
2019-04-04T00:47:55.533Z,80.23
2019-04-04T00:48:32.245Z,79.95
2019-04-04T00:49:08.434Z,79.91
2019-04-04T00:49:44.474Z,79.79
2019-04-04T00:50:20.620Z,79.79
2019-04-04T00:50:56.472Z,79.43
2019-04-04T00:51:32.094Z,79.60
2019-04-04T00:52:10.041Z,79.79
2019-04-04T00:52:44.692Z,79.89
2019-04-04T00:53:20.096Z,80.64
2019-04-04T00:53:55.894Z,80.64
2019-04-04T00:54:31.287Z,80.62
2019-04-04T00:55:07.344Z,80.47
2019-04-04T00:55:42.779Z,80.66
2019-04-04T00:56:18.809Z,80.95
2019-04-04T00:56:54.693Z,80.75
2019-04-04T00:57:30.434Z,80.75
2019-04-04T00:58:05.851Z,80.53
2019-04-04T00:58:41.448Z,80.31
2019-04-04T00:59:16.894Z,80.86
2019-04-04T00:59:53.640Z,80.86
2019-04-04T01:00:29.397Z,80.58
2019-04-04T01:01:04.885Z,80.67
2019-04-04T01:01:40.656Z,80.88
2019-04-04T01:02:16.097Z,81.02
2019-04-04T01:02:51.632Z,81.28
2019-04-04T01:03:29.758Z,81.41
2019-04-04T01:04:04.257Z,81.44
2019-04-04T01:04:39.713Z,81.45
2019-04-04T01:05:15.483Z,81.46
2019-04-04T01:05:51.105Z,81.43
2019-04-04T01:06:26.517Z,81.51
2019-04-04T01:07:03.034Z,81.58
2019-04-04T01:07:39.402Z,81.05
2019-04-04T01:08:14.895Z,80.83
2019-04-04T01:08:50.300Z,80.83
2019-04-04T01:09:25.712Z,81.17
2019-04-04T01:10:01.402Z,81.17
2019-04-04T01:10:37.389Z,81.22
2019-04-04T01:11:13.232Z,81.42
2019-04-04T01:11:51.123Z,81.44
2019-04-04T01:12:26.552Z,81.46
2019-04-04T01:13:02.303Z,81.09
2019-04-04T01:13:37.733Z,80.68
2019-04-04T01:14:13.176Z,80.32
2019-04-04T01:14:48.606Z,80.54
2019-04-04T01:15:24.014Z,80.71
2019-04-04T01:16:02.513Z,80.71
2019-04-04T01:16:36.906Z,80.95
2019-04-04T01:17:12.449Z,81.06
2019-04-04T01:17:47.907Z,80.66
2019-04-04T01:18:23.344Z,80.25
2019-04-04T01:18:58.864Z,80.42
2019-04-04T01:19:34.287Z,80.42
2019-04-04T01:20:10.733Z,80.29
2019-04-04T01:20:46.260Z,80.29
2019-04-04T01:21:22.243Z,80.38
2019-04-04T01:21:58.796Z,80.35
2019-04-04T01:22:34.215Z,80.39
2019-04-04T01:23:09.674Z,80.70
2019-04-04T01:23:45.221Z,80.78
2019-04-04T01:24:20.882Z,80.36
2019-04-04T01:24:56.296Z,80.36
2019-04-04T01:25:32.791Z,80.19
2019-04-04T01:26:08.501Z,80.22
2019-04-04T01:26:43.970Z,80.62
2019-04-04T01:27:19.413Z,80.62
2019-04-04T01:27:54.819Z,80.60
2019-04-04T01:28:30.245Z,80.24
2019-04-04T01:29:06.084Z,80.80
2019-04-04T01:29:41.612Z,80.80
2019-04-04T01:30:17.261Z,80.87
2019-04-04T01:30:52.856Z,80.99
2019-04-04T01:31:28.381Z,80.85
2019-04-04T01:32:03.904Z,80.77
2019-04-04T01:32:39.366Z,80.79
2019-04-04T01:33:14.843Z,80.89
2019-04-04T01:33:51.672Z,81.35
2019-04-04T01:34:27.608Z,81.35
2019-04-04T01:35:03.080Z,81.75
2019-04-04T01:35:38.510Z,81.75
2019-04-04T01:36:14.313Z,81.57
2019-04-04T01:36:49.745Z,81.40
2019-04-04T01:37:27.163Z,81.24
2019-04-04T01:38:02.682Z,81.16
2019-04-04T01:38:38.556Z,81.11
2019-04-04T01:39:14.011Z,80.98
2019-04-04T01:39:49.436Z,80.97
2019-04-04T01:40:24.950Z,80.93
2019-04-04T01:41:03.970Z,80.93
2019-04-04T01:41:37.477Z,80.97
2019-04-04T01:42:13.075Z,81.52
2019-04-04T01:42:48.639Z,81.52
2019-04-04T01:43:24.088Z,81.27
2019-04-04T01:44:04.995Z,81.20
2019-04-04T01:44:36.702Z,81.10
2019-04-04T01:45:13.079Z,81.16
2019-04-04T01:45:49.190Z,81.16
2019-04-04T01:46:24.895Z,81.19
2019-04-04T01:47:00.321Z,81.11
2019-04-04T01:47:35.740Z,81.10
2019-04-04T01:48:11.510Z,81.33
2019-04-04T01:48:49.698Z,81.46
2019-04-04T01:49:24.102Z,81.92
2019-04-04T01:49:59.534Z,81.78
2019-04-04T01:50:34.948Z,82.14
2019-04-04T01:51:10.477Z,82.14
2019-04-04T01:51:45.986Z,82.21
2019-04-04T01:52:21.508Z,82.34
2019-04-04T01:52:59.264Z,82.01
2019-04-04T01:53:35.095Z,81.80
2019-04-04T01:54:10.523Z,81.79
2019-04-04T01:54:46.498Z,82.04
2019-04-04T01:55:21.922Z,82.11
2019-04-04T01:55:57.325Z,82.12
2019-04-04T01:56:32.743Z,82.17
2019-04-04T01:57:08.820Z,82.18
2019-04-04T01:57:44.227Z,82.29
2019-04-04T01:58:19.712Z,82.29
2019-04-04T01:58:55.130Z,82.22
2019-04-04T01:59:30.551Z,81.87
2019-04-04T02:00:06.849Z,81.87
2019-04-04T02:00:43.982Z,81.79
2019-04-04T02:01:19.471Z,81.68
2019-04-04T02:01:54.915Z,81.65
2019-04-04T02:02:30.443Z,81.65
2019-04-04T02:03:05.879Z,81.78
2019-04-04T02:03:41.501Z,81.78
2019-04-04T02:04:17.010Z,82.05
2019-04-04T02:04:55.548Z,81.99
2019-04-04T02:05:29.940Z,81.90
2019-04-04T02:06:05.500Z,81.79
2019-04-04T02:06:41.298Z,81.73
2019-04-04T02:07:16.725Z,81.77
2019-04-04T02:07:52.153Z,81.98
2019-04-04T02:08:27.591Z,81.80
2019-04-04T02:09:04.906Z,81.80
2019-04-04T02:09:43.228Z,81.76
2019-04-04T02:10:17.884Z,81.45
2019-04-04T02:10:53.290Z,80.81
2019-04-04T02:11:28.735Z,80.10
2019-04-04T02:12:07.512Z,79.93
2019-04-04T02:12:41.647Z,80.32
2019-04-04T02:13:17.075Z,80.59
2019-04-04T02:13:52.525Z,80.76
2019-04-04T02:14:28.312Z,80.67
2019-04-04T02:15:03.987Z,80.75
2019-04-04T02:15:39.433Z,80.81
2019-04-04T02:16:17.075Z,81.08
2019-04-04T02:16:52.149Z,81.09
2019-04-04T02:17:27.672Z,80.90
2019-04-04T02:18:03.087Z,80.71
2019-04-04T02:18:38.793Z,80.71
2019-04-04T02:19:14.253Z,80.79
2019-04-04T02:19:49.700Z,81.07
2019-04-04T02:20:26.977Z,81.07
2019-04-04T02:21:02.242Z,81.23
2019-04-04T02:21:37.670Z,81.35
2019-04-04T02:22:13.146Z,81.14
2019-04-04T02:22:48.592Z,80.97
2019-04-04T02:23:24.149Z,81.01
2019-04-04T02:24:01.299Z,81.07
2019-04-04T02:24:36.750Z,81.12
2019-04-04T02:25:12.455Z,81.12
2019-04-04T02:25:47.916Z,81.22
2019-04-04T02:26:23.369Z,81.19
2019-04-04T02:26:58.970Z,81.17
2019-04-04T02:27:37.626Z,81.02
2019-04-04T02:28:11.690Z,80.91
2019-04-04T02:28:47.139Z,80.62
2019-04-04T02:29:22.989Z,80.38
2019-04-04T02:29:58.674Z,79.88
2019-04-04T02:30:34.082Z,79.55
2019-04-04T02:31:09.695Z,79.75
2019-04-04T02:31:48.131Z,79.88
2019-04-04T02:32:26.589Z,79.94
2019-04-04T02:33:00.857Z,80.44
2019-04-04T02:33:36.365Z,80.44
2019-04-04T02:34:11.826Z,80.45
2019-04-04T02:34:47.337Z,80.42
2019-04-04T02:35:22.866Z,80.49
2019-04-04T02:35:58.298Z,80.51
2019-04-04T02:36:33.691Z,80.51
2019-04-04T02:37:09.121Z,80.38
2019-04-04T02:37:44.951Z,80.55
2019-04-04T02:38:20.385Z,80.43
2019-04-04T02:39:10.550Z,80.43
2019-04-04T02:39:45.954Z,80.58
2019-04-04T02:40:21.769Z,80.97
2019-04-04T02:40:57.479Z,80.97
2019-04-04T02:41:32.938Z,81.21
2019-04-04T02:42:08.761Z,81.25
2019-04-04T02:42:44.210Z,81.19
2019-04-04T02:43:19.661Z,80.80
2019-04-04T02:43:55.080Z,80.81
2019-04-04T02:44:32.214Z,80.81
2019-04-04T02:45:08.003Z,80.75
2019-04-04T02:45:43.513Z,80.71
2019-04-04T02:46:18.925Z,81.11
2019-04-04T02:46:54.685Z,81.11
2019-04-04T02:47:30.115Z,80.91
2019-04-04T02:48:05.561Z,80.71
2019-04-04T02:48:41.017Z,80.63
2019-04-04T02:49:16.466Z,80.81
2019-04-04T02:49:51.927Z,80.99
2019-04-04T02:50:27.347Z,80.94
2019-04-04T02:51:07.008Z,80.94
2019-04-04T02:51:41.081Z,80.94
2019-04-04T02:52:16.873Z,80.75
2019-04-04T02:52:52.299Z,80.73
2019-04-04T02:53:27.735Z,80.44
2019-04-04T02:54:03.206Z,80.35
2019-04-04T02:54:39.090Z,80.35
2019-04-04T02:55:14.510Z,79.65
2019-04-04T02:55:50.898Z,79.65
2019-04-04T02:56:26.352Z,79.87
2019-04-04T02:57:01.778Z,79.97
2019-04-04T02:57:40.994Z,80.05
2019-04-04T02:58:15.364Z,80.05
2019-04-04T02:58:51.315Z,80.00
2019-04-04T02:59:26.838Z,79.48
2019-04-04T03:00:02.317Z,79.08
2019-04-04T03:00:37.775Z,79.01
2019-04-04T03:01:13.630Z,78.94
2019-04-04T03:01:49.064Z,79.24
2019-04-04T03:02:24.494Z,79.51
2019-04-04T03:02:59.912Z,79.75
2019-04-04T03:03:35.357Z,79.75
2019-04-04T03:04:13.485Z,79.74
2019-04-04T03:04:48.248Z,79.76
2019-04-04T03:05:23.670Z,79.56
2019-04-04T03:05:59.329Z,80.05
2019-04-04T03:06:35.058Z,80.05
2019-04-04T03:07:10.828Z,79.87
2019-04-04T03:07:46.361Z,79.87
2019-04-04T03:08:22.377Z,78.91
2019-04-04T03:08:57.798Z,78.91
2019-04-04T03:09:33.326Z,78.75
2019-04-04T03:10:08.846Z,79.07
2019-04-04T03:10:47.708Z,79.27
2019-04-04T03:11:22.776Z,79.45
2019-04-04T03:11:58.684Z,79.60
2019-04-04T03:12:34.155Z,79.74
2019-04-04T03:13:09.565Z,79.55
2019-04-04T03:13:45.098Z,79.55
2019-04-04T03:14:20.504Z,79.47
2019-04-04T03:14:55.947Z,79.26
2019-04-04T03:15:31.370Z,79.30
2019-04-04T03:16:07.163Z,79.18
2019-04-04T03:16:42.661Z,78.75
2019-04-04T03:17:18.101Z,78.75
2019-04-04T03:17:53.524Z,79.17
2019-04-04T03:18:28.966Z,79.38
2019-04-04T03:19:04.383Z,79.38
2019-04-04T03:19:40.709Z,79.19
2019-04-04T03:20:17.651Z,79.07
2019-04-04T03:20:53.241Z,79.02
2019-04-04T03:21:28.649Z,79.06
2019-04-04T03:22:04.082Z,79.36
2019-04-04T03:22:39.510Z,79.72
2019-04-04T03:23:14.974Z,79.72
2019-04-04T03:23:50.475Z,79.59
2019-04-04T03:24:25.885Z,79.65
2019-04-04T03:25:01.620Z,79.75
2019-04-04T03:25:37.743Z,79.75
2019-04-04T03:26:13.137Z,79.86
2019-04-04T03:26:52.212Z,79.89
2019-04-04T03:27:26.975Z,79.41
2019-04-04T03:28:02.733Z,79.00
2019-04-04T03:28:38.127Z,78.94
2019-04-04T03:29:13.572Z,79.04
2019-04-04T03:29:49.064Z,79.25
2019-04-04T03:30:24.503Z,79.50
2019-04-04T03:31:02.804Z,79.46
2019-04-04T03:31:39.051Z,79.46
2019-04-04T03:32:16.731Z,79.73
2019-04-04T03:32:54.376Z,79.69
2019-04-04T03:33:32.077Z,79.55
2019-04-04T03:34:10.950Z,79.55
2019-04-04T03:34:48.612Z,79.59
2019-04-04T03:35:25.689Z,79.74
2019-04-04T03:36:00.937Z,79.62
2019-04-04T03:36:34.744Z,79.62
2019-04-04T03:37:12.373Z,79.42
2019-04-04T03:37:47.334Z,79.38
2019-04-04T03:38:22.742Z,79.43
2019-04-04T03:38:58.186Z,79.43
2019-04-04T03:39:33.605Z,79.51
2019-04-04T03:40:09.706Z,79.72
2019-04-04T03:40:45.160Z,79.90
2019-04-04T03:41:20.581Z,79.90
2019-04-04T03:41:56.011Z,79.57
2019-04-04T03:42:31.692Z,79.57
2019-04-04T03:43:07.146Z,79.57
2019-04-04T03:43:42.670Z,79.21
2019-04-04T03:44:19.837Z,79.17
2019-04-04T03:44:55.630Z,79.26
2019-04-04T03:45:31.064Z,79.25
2019-04-04T03:46:06.896Z,79.25
2019-04-04T03:46:42.351Z,79.24
2019-04-04T03:47:17.803Z,78.98
2019-04-04T03:47:53.893Z,78.95
2019-04-04T03:48:29.301Z,79.02
2019-04-04T03:49:04.713Z,79.02
2019-04-04T03:49:40.159Z,78.95
2019-04-04T03:50:15.666Z,79.14
2019-04-04T03:50:51.103Z,79.13
2019-04-04T03:51:26.527Z,79.05
2019-04-04T03:52:02.330Z,79.05
2019-04-04T03:52:37.742Z,79.33
2019-04-04T03:53:16.353Z,79.71
2019-04-04T03:53:52.784Z,79.74
2019-04-04T03:54:28.593Z,79.42
2019-04-04T03:55:04.409Z,79.14
2019-04-04T03:55:39.849Z,79.18
2019-04-04T03:56:15.883Z,79.27
2019-04-04T03:56:51.297Z,78.51
2019-04-04T03:57:26.789Z,78.51
2019-04-04T03:58:02.551Z,77.96
2019-04-04T03:58:37.939Z,77.99
2019-04-04T03:59:13.843Z,78.04
2019-04-04T03:59:49.294Z,78.13
2019-04-04T04:00:27.820Z,78.13
2019-04-04T04:01:03.237Z,78.17
2019-04-04T04:01:38.703Z,78.55
2019-04-04T04:02:17.907Z,78.55
2019-04-04T04:02:51.271Z,78.67
2019-04-04T04:03:26.694Z,78.68
2019-04-04T04:04:02.110Z,78.68
2019-04-04T04:04:37.602Z,78.82
2019-04-04T04:05:26.696Z,78.83
2019-04-04T04:06:02.512Z,78.92
2019-04-04T04:06:41.536Z,78.90
2019-04-04T04:07:15.431Z,78.93
2019-04-04T04:07:51.472Z,78.98
2019-04-04T04:08:26.881Z,79.13
2019-04-04T04:09:02.311Z,79.35
2019-04-04T04:09:37.707Z,79.32
2019-04-04T04:10:13.710Z,79.09
2019-04-04T04:10:49.154Z,78.97
2019-04-04T04:11:24.593Z,79.01
2019-04-04T04:12:01.850Z,78.93
2019-04-04T04:12:37.277Z,78.93
2019-04-04T04:13:16.134Z,78.95
2019-04-04T04:13:50.148Z,78.98
2019-04-04T04:14:26.029Z,78.80
2019-04-04T04:15:01.470Z,78.65
2019-04-04T04:15:36.976Z,78.60
2019-04-04T04:16:12.431Z,78.99
2019-04-04T04:16:47.957Z,78.99
2019-04-04T04:17:23.387Z,78.86
2019-04-04T04:17:58.833Z,78.65
2019-04-04T04:18:34.248Z,78.22
2019-04-04T04:19:09.775Z,78.16
2019-04-04T04:19:45.178Z,78.19
2019-04-04T04:20:20.614Z,78.28
2019-04-04T04:20:56.046Z,78.04
2019-04-04T04:21:31.466Z,78.04
2019-04-04T04:22:06.896Z,77.86
2019-04-04T04:22:42.346Z,77.61
2019-04-04T04:23:17.801Z,77.61
2019-04-04T04:23:56.453Z,77.57
2019-04-04T04:24:30.547Z,77.99
2019-04-04T04:25:05.996Z,78.05
2019-04-04T04:25:44.625Z,78.37
2019-04-04T04:26:20.067Z,78.37
2019-04-04T04:26:55.482Z,78.40
2019-04-04T04:27:30.909Z,78.43
2019-04-04T04:28:06.308Z,78.43
2019-04-04T04:28:42.388Z,78.52
2019-04-04T04:29:17.834Z,78.52
2019-04-04T04:29:53.238Z,78.15
2019-04-04T04:30:28.649Z,77.29
2019-04-04T04:31:04.427Z,76.86
2019-04-04T04:31:40.177Z,77.04
2019-04-04T04:32:15.916Z,77.25
2019-04-04T04:32:55.864Z,77.25
2019-04-04T04:33:29.289Z,77.41
2019-04-04T04:34:05.465Z,78.02
2019-04-04T04:34:41.114Z,78.02
2019-04-04T04:35:16.532Z,77.91
2019-04-04T04:35:52.061Z,77.44
2019-04-04T04:36:27.481Z,77.47
2019-04-04T04:37:02.908Z,77.52
2019-04-04T04:37:38.363Z,77.65
2019-04-04T04:38:13.812Z,77.73
2019-04-04T04:38:49.306Z,77.97
2019-04-04T04:39:24.716Z,78.34
2019-04-04T04:40:00.137Z,78.34
2019-04-04T04:40:35.681Z,78.42
2019-04-04T04:41:11.155Z,78.62
2019-04-04T04:41:47.116Z,78.29
2019-04-04T04:42:26.179Z,78.29
2019-04-04T04:43:01.022Z,77.61
2019-04-04T04:43:36.584Z,76.94
2019-04-04T04:44:12.022Z,76.94
2019-04-04T04:44:47.453Z,76.92
2019-04-04T04:45:22.984Z,77.00
2019-04-04T04:45:58.394Z,76.96
2019-04-04T04:46:33.917Z,77.08
2019-04-04T04:47:09.353Z,77.20
2019-04-04T04:47:44.802Z,77.13
2019-04-04T04:48:20.315Z,76.89
2019-04-04T04:48:55.785Z,76.98
2019-04-04T04:49:31.155Z,76.83
2019-04-04T04:50:09.698Z,76.93
2019-04-04T04:50:43.800Z,77.29
2019-04-04T04:51:19.269Z,77.29
2019-04-04T04:51:54.666Z,77.58
2019-04-04T04:52:30.120Z,78.18
2019-04-04T04:53:05.540Z,78.18
2019-04-04T04:53:40.962Z,78.78
2019-04-04T04:54:16.389Z,78.85
2019-04-04T04:54:54.310Z,78.85
2019-04-04T04:55:29.638Z,78.86
2019-04-04T04:56:05.364Z,79.18
2019-04-04T04:56:40.826Z,79.03
2019-04-04T04:57:28.754Z,78.76
2019-04-04T04:57:56.104Z,78.91
2019-04-04T04:58:30.515Z,78.76
2019-04-04T04:59:05.931Z,78.72
2019-04-04T04:59:44.361Z,78.72
2019-04-04T05:00:18.584Z,78.86
2019-04-04T05:00:54.352Z,79.08
2019-04-04T05:01:30.106Z,79.08
2019-04-04T05:02:05.725Z,78.70
2019-04-04T05:02:41.275Z,78.68
2019-04-04T05:03:17.105Z,78.93
2019-04-04T05:03:54.209Z,78.58
2019-04-04T05:04:29.675Z,78.58
2019-04-04T05:05:05.437Z,78.43
2019-04-04T05:05:40.964Z,78.27
2019-04-04T05:06:16.386Z,78.27
2019-04-04T05:06:51.828Z,78.41
2019-04-04T05:07:27.267Z,78.53
2019-04-04T05:08:02.693Z,78.32
2019-04-04T05:08:39.041Z,78.32
2019-04-04T05:09:15.296Z,78.10
2019-04-04T05:09:50.698Z,78.14
2019-04-04T05:10:26.123Z,78.29
2019-04-04T05:11:01.545Z,78.36
2019-04-04T05:11:37.030Z,78.05
2019-04-04T05:12:12.476Z,77.34
2019-04-04T05:12:47.939Z,77.44
2019-04-04T05:13:25.102Z,77.44
2019-04-04T05:14:00.455Z,77.17
2019-04-04T05:14:36.249Z,77.23
2019-04-04T05:15:11.690Z,77.32
2019-04-04T05:15:47.138Z,77.19
2019-04-04T05:16:22.560Z,77.50
2019-04-04T05:16:57.990Z,77.50
2019-04-04T05:17:33.398Z,77.54
2019-04-04T05:18:11.698Z,77.89
2019-04-04T05:18:47.738Z,78.02
2019-04-04T05:19:23.076Z,78.02
2019-04-04T05:19:58.478Z,77.79
2019-04-04T05:20:34.211Z,77.79
2019-04-04T05:21:09.796Z,77.82
2019-04-04T05:21:45.610Z,77.49
2019-04-04T05:22:21.032Z,77.49
2019-04-04T05:22:56.933Z,77.36
2019-04-04T05:23:32.325Z,77.47
2019-04-04T05:24:07.804Z,77.47
2019-04-04T05:24:43.616Z,77.61
2019-04-04T05:25:19.040Z,77.64
2019-04-04T05:25:54.577Z,77.92
2019-04-04T05:26:30.015Z,77.92
2019-04-04T05:27:05.998Z,77.97
2019-04-04T05:27:42.187Z,77.81
2019-04-04T05:28:17.682Z,78.05
2019-04-04T05:28:53.127Z,78.21
2019-04-04T05:29:28.556Z,78.21
2019-04-04T05:30:04.635Z,78.28
2019-04-04T05:30:40.038Z,78.28
2019-04-04T05:31:16.130Z,78.35
2019-04-04T05:31:52.716Z,78.35
2019-04-04T05:32:28.143Z,78.31
2019-04-04T05:33:03.586Z,78.31
2019-04-04T05:33:39.377Z,78.23
2019-04-04T05:34:14.972Z,78.29
2019-04-04T05:34:50.398Z,78.45
2019-04-04T05:35:25.801Z,78.45
2019-04-04T05:36:01.234Z,78.72
2019-04-04T05:36:37.037Z,78.29
2019-04-04T05:37:12.735Z,78.29
2019-04-04T05:37:48.166Z,78.23
2019-04-04T05:38:23.588Z,78.23
2019-04-04T05:38:59.403Z,77.68
2019-04-04T05:39:35.173Z,77.68
2019-04-04T05:40:11.249Z,77.79
2019-04-04T05:40:46.998Z,77.75
2019-04-04T05:41:22.557Z,77.75
2019-04-04T05:42:00.386Z,77.71
2019-04-04T05:42:36.749Z,77.50
2019-04-04T05:43:14.868Z,77.80
2019-04-04T05:43:49.323Z,77.66
2019-04-04T05:44:25.380Z,77.54
2019-04-04T05:45:01.120Z,77.66
2019-04-04T05:45:36.550Z,77.80
2019-04-04T05:46:11.968Z,77.84
2019-04-04T05:46:47.424Z,77.75
2019-04-04T05:47:23.818Z,77.75
2019-04-04T05:47:59.823Z,77.90
2019-04-04T05:48:35.380Z,77.63
2019-04-04T05:49:11.537Z,77.44
2019-04-04T05:49:47.414Z,77.45
2019-04-04T05:50:23.218Z,76.76
2019-04-04T05:50:58.678Z,76.57
2019-04-04T05:51:36.192Z,76.57
2019-04-04T05:52:11.601Z,77.00
2019-04-04T05:52:47.052Z,76.58
2019-04-04T05:53:22.921Z,76.78
2019-04-04T05:53:58.342Z,76.78
2019-04-04T05:54:33.754Z,75.25
2019-04-04T05:55:10.926Z,75.25
2019-04-04T05:55:46.828Z,75.77
2019-04-04T05:56:24.298Z,76.34
2019-04-04T05:56:59.402Z,76.34
2019-04-04T05:57:35.222Z,76.47
2019-04-04T05:58:10.798Z,76.47
2019-04-04T05:58:46.274Z,76.25
2019-04-04T05:59:23.767Z,76.32
2019-04-04T05:59:58.976Z,76.17
2019-04-04T06:00:35.017Z,76.27
2019-04-04T06:01:11.433Z,76.11
2019-04-04T06:01:46.937Z,76.11
2019-04-04T06:02:22.398Z,75.78
2019-04-04T06:02:57.856Z,75.78
2019-04-04T06:03:33.696Z,76.30
2019-04-04T06:04:09.141Z,76.30
2019-04-04T06:04:44.626Z,76.06
2019-04-04T06:05:20.073Z,75.70
2019-04-04T06:05:55.476Z,75.80
2019-04-04T06:06:33.473Z,75.58
2019-04-04T06:07:08.755Z,75.40
2019-04-04T06:07:44.242Z,75.40
2019-04-04T06:08:20.092Z,75.68
2019-04-04T06:08:55.558Z,76.00
2019-04-04T06:09:30.973Z,75.96
2019-04-04T06:10:06.816Z,75.65
2019-04-04T06:10:42.367Z,75.66
2019-04-04T06:11:20.984Z,75.66
2019-04-04T06:11:55.808Z,76.08
2019-04-04T06:12:31.862Z,76.35
2019-04-04T06:13:07.292Z,76.83
2019-04-04T06:13:42.750Z,76.68
2019-04-04T06:14:20.586Z,76.68
2019-04-04T06:14:55.531Z,76.60
2019-04-04T06:15:32.187Z,76.48
2019-04-04T06:16:08.168Z,76.82
2019-04-04T06:16:44.047Z,76.82
2019-04-04T06:17:19.495Z,76.97
2019-04-04T06:17:55.266Z,77.19
2019-04-04T06:18:30.692Z,77.21
2019-04-04T06:19:06.118Z,77.21
2019-04-04T06:19:44.405Z,76.87
2019-04-04T06:20:19.042Z,76.87
2019-04-04T06:20:54.426Z,77.17
2019-04-04T06:21:29.949Z,77.14
2019-04-04T06:22:05.378Z,77.14
2019-04-04T06:22:40.873Z,77.45
2019-04-04T06:23:16.544Z,76.97
2019-04-04T06:23:51.965Z,76.97
2019-04-04T06:24:27.973Z,76.74
2019-04-04T06:25:03.848Z,76.74
2019-04-04T06:25:39.277Z,76.45
2019-04-04T06:26:15.045Z,76.42
2019-04-04T06:26:50.459Z,76.79
2019-04-04T06:27:25.909Z,76.79
2019-04-04T06:28:01.639Z,76.59
2019-04-04T06:28:37.054Z,76.78
2019-04-04T06:29:12.974Z,76.58
2019-04-04T06:29:48.431Z,76.27
2019-04-04T06:30:23.960Z,76.27
2019-04-04T06:31:00.872Z,76.59
2019-04-04T06:31:36.352Z,76.59
2019-04-04T06:32:11.858Z,76.65
2019-04-04T06:32:47.704Z,77.05
2019-04-04T06:33:23.143Z,76.89
2019-04-04T06:33:58.557Z,76.80
2019-04-04T06:34:34.267Z,76.87
2019-04-04T06:35:10.081Z,76.33
2019-04-04T06:35:47.855Z,76.33
2019-04-04T06:36:22.643Z,76.40
2019-04-04T06:36:58.093Z,75.91
2019-04-04T06:37:34.456Z,75.91
2019-04-04T06:38:10.307Z,75.66
2019-04-04T06:38:45.763Z,75.54
2019-04-04T06:39:23.028Z,75.22
2019-04-04T06:39:58.976Z,75.40
2019-04-04T06:40:35.285Z,76.25
2019-04-04T06:41:10.893Z,76.37
2019-04-04T06:41:46.451Z,76.74
2019-04-04T06:42:22.181Z,76.81
2019-04-04T06:42:57.591Z,76.81
2019-04-04T06:43:33.062Z,77.17
2019-04-04T06:44:08.563Z,77.54
2019-04-04T06:44:44.458Z,78.11
2019-04-04T06:45:20.016Z,78.11
2019-04-04T06:45:55.438Z,77.85
2019-04-04T06:46:30.868Z,77.85
2019-04-04T06:47:06.331Z,77.65
2019-04-04T06:47:41.786Z,77.37
2019-04-04T06:48:17.201Z,77.03
2019-04-04T06:48:52.627Z,76.63
2019-04-04T06:49:28.924Z,76.63
2019-04-04T06:50:08.180Z,76.93
2019-04-04T06:50:43.159Z,77.51
2019-04-04T06:51:18.612Z,77.87
2019-04-04T06:51:54.033Z,77.93
2019-04-04T06:52:29.494Z,77.93
2019-04-04T06:53:04.921Z,77.70
2019-04-04T06:53:40.454Z,77.55
2019-04-04T06:54:15.929Z,77.55
2019-04-04T06:54:51.611Z,77.61
2019-04-04T06:55:28.768Z,77.28
2019-04-04T06:56:04.191Z,76.92
2019-04-04T06:56:39.611Z,76.92
2019-04-04T06:57:15.121Z,76.67
2019-04-04T06:57:51.405Z,76.57
2019-04-04T06:58:27.209Z,76.49
2019-04-04T06:59:02.972Z,76.27
2019-04-04T06:59:38.791Z,76.06
2019-04-04T07:00:15.988Z,76.07
2019-04-04T07:00:51.359Z,76.27
2019-04-04T07:01:27.114Z,76.65
2019-04-04T07:02:05.089Z,76.94
2019-04-04T07:02:39.800Z,77.27
2019-04-04T07:03:15.296Z,77.57
2019-04-04T07:03:52.653Z,77.93
2019-04-04T07:04:29.296Z,77.99
2019-04-04T07:05:06.317Z,77.94
2019-04-04T07:05:42.632Z,77.79
2019-04-04T07:06:18.073Z,77.80
2019-04-04T07:06:53.846Z,77.80
2019-04-04T07:07:29.703Z,77.58
2019-04-04T07:08:05.196Z,77.64
2019-04-04T07:08:40.616Z,77.80
2019-04-04T07:09:18.386Z,77.69
2019-04-04T07:09:53.288Z,77.52
2019-04-04T07:10:28.735Z,77.52
2019-04-04T07:11:06.978Z,77.39
2019-04-04T07:11:41.722Z,77.37
2019-04-04T07:12:24.259Z,77.48
2019-04-04T07:13:09.270Z,77.46
2019-04-04T07:13:41.751Z,77.34
2019-04-04T07:14:09.294Z,77.34
2019-04-04T07:14:47.085Z,76.87
2019-04-04T07:15:22.530Z,76.77
2019-04-04T07:16:06.837Z,76.64
2019-04-04T07:16:36.845Z,76.22
2019-04-04T07:17:12.827Z,75.81
2019-04-04T07:17:48.302Z,76.29
2019-04-04T07:18:24.171Z,76.29
2019-04-04T07:18:59.588Z,76.27
2019-04-04T07:19:35.021Z,76.45
2019-04-04T07:20:11.077Z,76.43
2019-04-04T07:20:48.405Z,76.43
2019-04-04T07:21:24.829Z,76.67
2019-04-04T07:22:00.263Z,76.64
2019-04-04T07:22:35.696Z,77.10
2019-04-04T07:23:14.150Z,77.51
2019-04-04T07:23:48.533Z,77.83
2019-04-04T07:24:24.033Z,78.08
2019-04-04T07:25:01.170Z,78.20
2019-04-04T07:25:39.438Z,78.13
2019-04-04T07:26:14.863Z,78.46
2019-04-04T07:26:50.590Z,78.46
2019-04-04T07:27:26.012Z,78.33
2019-04-04T07:28:01.469Z,78.06
2019-04-04T07:28:36.871Z,78.06
2019-04-04T07:29:12.604Z,78.27
2019-04-04T07:29:48.013Z,78.46
2019-04-04T07:30:23.459Z,78.58
2019-04-04T07:31:01.203Z,79.04
2019-04-04T07:31:38.343Z,79.04
2019-04-04T07:32:13.720Z,79.45
2019-04-04T07:32:49.238Z,79.45
2019-04-04T07:33:24.945Z,78.94
2019-04-04T07:34:00.350Z,78.63
2019-04-04T07:34:36.233Z,78.62
2019-04-04T07:35:11.649Z,78.62
2019-04-04T07:35:48.902Z,78.73
2019-04-04T07:36:24.314Z,78.72
2019-04-04T07:37:00.006Z,78.87
2019-04-04T07:37:35.875Z,78.87
2019-04-04T07:38:11.782Z,78.54
2019-04-04T07:38:47.539Z,78.43
2019-04-04T07:39:22.970Z,78.43
2019-04-04T07:39:58.382Z,78.50
2019-04-04T07:40:37.176Z,78.32
2019-04-04T07:41:14.490Z,77.71
2019-04-04T07:41:48.645Z,77.79
2019-04-04T07:42:24.059Z,77.79